createdAt,value
2019-06-20T00:01:59.822Z,21.25
2019-06-20T00:07:05.417Z,21.17
2019-06-20T00:12:11.046Z,21.14
2019-06-20T00:17:16.551Z,21.13
2019-06-20T00:22:21.980Z,21.11
2019-06-20T00:27:27.442Z,21.09
2019-06-20T00:32:33.009Z,21.09
2019-06-20T00:37:38.638Z,21.13
2019-06-20T00:42:44.102Z,21.20
2019-06-20T00:47:49.571Z,21.16
2019-06-20T00:52:55.177Z,21.10
2019-06-20T00:58:00.833Z,21.10
2019-06-20T01:03:06.298Z,21.14
2019-06-20T01:08:11.980Z,21.15
2019-06-20T01:13:32.493Z,21.14
2019-06-20T01:18:24.626Z,21.12
2019-06-20T01:23:30.107Z,21.13
2019-06-20T01:28:35.560Z,21.13
2019-06-20T01:33:41.189Z,21.15
2019-06-20T01:38:46.694Z,21.20
2019-06-20T01:43:52.242Z,21.30
2019-06-20T01:48:57.751Z,21.31
2019-06-20T01:54:03.447Z,21.27
2019-06-20T01:59:09.071Z,21.17
2019-06-20T02:04:14.662Z,21.02
2019-06-20T02:09:20.172Z,20.91
2019-06-20T02:14:25.607Z,20.86
2019-06-20T02:19:31.166Z,20.87
2019-06-20T02:24:36.603Z,20.88
2019-06-20T02:29:42.154Z,20.82
2019-06-20T02:34:47.795Z,20.71
2019-06-20T02:39:53.243Z,20.58
2019-06-20T02:44:58.693Z,20.53
2019-06-20T02:50:04.247Z,20.58
2019-06-20T02:55:09.886Z,20.71
2019-06-20T03:00:15.377Z,20.86
2019-06-20T03:05:20.861Z,20.98
2019-06-20T03:10:26.410Z,21.05
2019-06-20T03:15:31.881Z,21.14
2019-06-20T03:20:37.427Z,21.20
2019-06-20T03:25:42.935Z,21.25
2019-06-20T03:30:48.453Z,21.26
2019-06-20T03:35:53.980Z,21.25
2019-06-20T03:40:59.493Z,21.22
2019-06-20T03:46:04.974Z,21.20
2019-06-20T03:51:10.461Z,21.21
2019-06-20T03:56:17.585Z,21.25
2019-06-20T04:01:23.080Z,21.29
2019-06-20T04:06:28.540Z,21.31
2019-06-20T04:11:34.084Z,21.33
2019-06-20T04:16:39.588Z,21.32
2019-06-20T04:21:45.104Z,21.31
2019-06-20T04:26:50.653Z,21.30
2019-06-20T04:31:56.081Z,21.36
2019-06-20T04:37:01.552Z,21.44
2019-06-20T04:42:07.014Z,21.48
2019-06-20T04:47:13.188Z,21.54
2019-06-20T04:52:18.684Z,21.63
2019-06-20T04:57:24.130Z,21.70
2019-06-20T05:02:38.445Z,21.80
2019-06-20T05:07:44.014Z,22.01
2019-06-20T05:12:49.487Z,22.37
2019-06-20T05:17:54.985Z,22.66
2019-06-20T05:23:00.493Z,22.83
2019-06-20T05:28:05.939Z,22.89
2019-06-20T05:33:12.801Z,22.93
2019-06-20T05:38:18.295Z,23.00
2019-06-20T05:43:23.845Z,23.06
2019-06-20T05:48:29.291Z,23.12
2019-06-20T05:53:34.834Z,23.35
2019-06-20T05:58:40.438Z,24.28
2019-06-20T06:03:45.928Z,25.63
2019-06-20T06:08:51.933Z,27.42
2019-06-20T06:13:57.445Z,28.94
2019-06-20T06:19:03.159Z,29.61
2019-06-20T06:24:09.032Z,30.61
2019-06-20T06:29:16.433Z,31.19
2019-06-20T06:34:22.230Z,30.94
2019-06-20T06:39:27.975Z,30.30
2019-06-20T06:44:33.779Z,29.57
2019-06-20T06:49:39.796Z,29.07
2019-06-20T06:54:45.559Z,29.06
2019-06-20T06:59:51.339Z,30.72
2019-06-20T07:04:57.158Z,35.35
2019-06-20T07:10:03.063Z,39.41
2019-06-20T07:15:08.884Z,39.50
2019-06-20T07:20:15.464Z,37.98
2019-06-20T07:25:22.845Z,36.41
2019-06-20T07:30:28.659Z,35.00
2019-06-20T07:35:34.448Z,34.86
2019-06-20T07:40:40.295Z,36.74
2019-06-20T07:46:01.559Z,38.85
2019-06-20T07:50:53.616Z,41.69
2019-06-20T07:55:59.370Z,42.79
2019-06-20T08:01:05.145Z,42.13
2019-06-20T08:06:10.939Z,44.29
2019-06-20T08:11:16.772Z,47.07
2019-06-20T08:16:22.530Z,46.64
2019-06-20T08:21:28.571Z,44.86
2019-06-20T08:26:34.564Z,43.08
2019-06-20T08:31:40.322Z,43.09
2019-06-20T08:36:46.139Z,43.65
2019-06-20T08:41:51.925Z,45.29
2019-06-20T08:46:59.241Z,44.98
2019-06-20T08:52:05.594Z,43.49
2019-06-20T08:57:11.428Z,42.18
2019-06-20T09:02:17.193Z,40.60
2019-06-20T09:07:22.952Z,38.53
2019-06-20T09:12:28.804Z,36.75
2019-06-20T09:17:34.689Z,36.61
2019-06-20T09:22:40.531Z,36.83
2019-06-20T09:27:46.347Z,36.37
2019-06-20T09:32:52.819Z,35.52
2019-06-20T09:37:59.567Z,35.71
2019-06-20T09:43:05.631Z,37.07
2019-06-20T09:48:12.864Z,40.64
2019-06-20T09:53:18.689Z,41.99
2019-06-20T09:58:24.451Z,41.98
2019-06-20T10:03:30.219Z,41.82
2019-06-20T10:08:36.034Z,41.35
2019-06-20T10:13:41.792Z,40.50
2019-06-20T10:18:48.481Z,39.71
2019-06-20T10:23:54.254Z,39.11
2019-06-20T10:29:00.003Z,38.69
2019-06-20T10:34:05.921Z,38.05
2019-06-20T10:39:12.254Z,37.48
2019-06-20T10:44:17.998Z,36.92
2019-06-20T10:49:23.914Z,36.93
2019-06-20T10:54:29.762Z,36.57
2019-06-20T10:59:35.588Z,36.32
2019-06-20T11:04:42.404Z,36.22
2019-06-20T11:09:49.492Z,35.86
2019-06-20T11:14:55.290Z,35.37
2019-06-20T11:20:01.023Z,34.88
2019-06-20T11:25:07.358Z,34.52
2019-06-20T11:30:14.915Z,34.14
2019-06-20T11:35:20.820Z,33.73
2019-06-20T11:40:26.835Z,33.59
2019-06-20T11:45:32.531Z,33.57
2019-06-20T11:50:38.354Z,33.49
2019-06-20T11:55:44.425Z,33.51
2019-06-20T12:01:03.034Z,33.63
2019-06-20T12:05:57.762Z,33.53
2019-06-20T12:11:03.528Z,33.49
2019-06-20T12:16:09.289Z,33.52
2019-06-20T12:21:15.081Z,33.65
2019-06-20T12:26:20.941Z,33.67
2019-06-20T12:31:26.729Z,33.42
2019-06-20T12:36:32.481Z,33.12
2019-06-20T12:41:38.738Z,32.86
2019-06-20T12:46:46.974Z,32.22
2019-06-20T12:51:52.847Z,31.38
2019-06-20T12:56:58.571Z,30.59
2019-06-20T13:02:04.320Z,29.78
2019-06-20T13:07:10.175Z,28.92
2019-06-20T13:12:15.934Z,28.15
2019-06-20T13:17:21.401Z,27.42
2019-06-20T13:22:27.014Z,26.80
2019-06-20T13:27:32.522Z,26.45
2019-06-20T13:32:38.370Z,26.42
2019-06-20T13:37:45.645Z,26.84
2019-06-20T13:42:54.498Z,27.46
2019-06-20T13:47:58.927Z,28.11
2019-06-20T13:53:04.461Z,28.65
2019-06-20T13:58:10.190Z,28.91
2019-06-20T14:03:15.993Z,28.68
2019-06-20T14:08:21.486Z,28.48
2019-06-20T14:13:27.418Z,28.53
2019-06-20T14:18:33.242Z,28.67
2019-06-20T14:23:39.036Z,28.73
2019-06-20T14:28:46.013Z,28.62
2019-06-20T14:33:51.914Z,28.38
2019-06-20T14:38:57.649Z,28.15
2019-06-20T14:44:03.427Z,28.01
2019-06-20T14:49:08.979Z,27.82
2019-06-20T14:54:14.781Z,27.56
2019-06-20T14:59:20.251Z,27.24
2019-06-20T15:04:25.808Z,26.89
2019-06-20T15:09:31.400Z,26.60
2019-06-20T15:14:36.962Z,26.52
2019-06-20T15:19:42.425Z,26.53
2019-06-20T15:24:50.409Z,26.64
2019-06-20T15:29:56.302Z,26.73
2019-06-20T15:35:02.185Z,26.82
2019-06-20T15:40:07.860Z,26.96
2019-06-20T15:45:13.337Z,27.25
2019-06-20T15:50:18.896Z,27.57
2019-06-20T15:55:24.382Z,27.81
2019-06-20T16:00:29.913Z,27.99
2019-06-20T16:05:35.551Z,28.19
2019-06-20T16:10:41.367Z,28.43
2019-06-20T16:15:47.204Z,28.54
2019-06-20T16:20:52.935Z,28.48
2019-06-20T16:25:58.690Z,28.34
2019-06-20T16:31:10.149Z,28.14
2019-06-20T16:36:13.130Z,27.92
2019-06-20T16:41:19.130Z,27.59
2019-06-20T16:46:24.622Z,27.38
2019-06-20T16:51:30.107Z,27.21
2019-06-20T16:56:35.641Z,26.99
2019-06-20T17:01:41.109Z,26.82
2019-06-20T17:06:46.588Z,26.71
2019-06-20T17:11:52.180Z,26.60
2019-06-20T17:16:57.722Z,26.37
2019-06-20T17:22:03.291Z,26.12
2019-06-20T17:27:08.807Z,25.88
2019-06-20T17:32:14.300Z,25.69
2019-06-20T17:37:19.770Z,25.48
2019-06-20T17:42:25.217Z,25.24
2019-06-20T17:47:30.743Z,24.99
2019-06-20T17:52:36.304Z,24.81
2019-06-20T17:57:41.828Z,24.82
2019-06-20T18:02:47.390Z,24.95
2019-06-20T18:07:52.852Z,25.07
2019-06-20T18:12:58.532Z,25.13
2019-06-20T18:18:04.035Z,25.16
2019-06-20T18:23:09.496Z,25.18
2019-06-20T18:28:15.010Z,25.17
2019-06-20T18:33:20.454Z,25.14
2019-06-20T18:38:25.960Z,25.12
2019-06-20T18:43:31.467Z,25.10
2019-06-20T18:48:37.150Z,25.02
2019-06-20T18:53:42.731Z,24.89
2019-06-20T18:58:48.198Z,24.73
2019-06-20T19:03:53.767Z,24.54
2019-06-20T19:08:59.441Z,24.25
2019-06-20T19:14:05.029Z,23.98
2019-06-20T19:19:10.622Z,23.85
2019-06-20T19:24:16.227Z,23.78
2019-06-20T19:29:21.782Z,23.70
2019-06-20T19:34:27.325Z,23.58
2019-06-20T19:39:32.856Z,23.48
2019-06-20T19:44:38.352Z,23.29
2019-06-20T19:49:43.877Z,23.04
2019-06-20T19:54:49.363Z,22.77
2019-06-20T19:59:54.862Z,22.53
2019-06-20T20:05:00.412Z,22.28
2019-06-20T20:10:06.686Z,21.99
2019-06-20T20:15:12.304Z,21.75
2019-06-20T20:20:17.770Z,21.51
2019-06-20T20:25:23.410Z,21.31
2019-06-20T20:30:28.912Z,21.18
2019-06-20T20:35:35.843Z,21.08
2019-06-20T20:40:41.628Z,20.96
2019-06-20T20:45:47.142Z,20.84
2019-06-20T20:50:52.748Z,20.74
2019-06-20T20:55:58.272Z,20.64
2019-06-20T21:01:16.939Z,20.52
2019-06-20T21:06:22.411Z,20.42
2019-06-20T21:11:27.927Z,20.30
2019-06-20T21:16:33.578Z,20.19
2019-06-20T21:21:39.117Z,20.08
2019-06-20T21:26:49.634Z,19.97
2019-06-20T21:31:51.915Z,19.87
2019-06-20T21:36:57.447Z,19.77
2019-06-20T21:42:02.923Z,19.69
2019-06-20T21:47:08.409Z,19.64
2019-06-20T21:52:13.930Z,19.68
2019-06-20T21:57:19.476Z,19.73
2019-06-20T22:02:24.972Z,19.75
2019-06-20T22:07:30.613Z,19.79
2019-06-20T22:12:36.229Z,19.78
2019-06-20T22:17:41.724Z,19.74
2019-06-20T22:22:47.196Z,19.68
2019-06-20T22:27:52.656Z,19.71
2019-06-20T22:32:58.192Z,19.81
2019-06-20T22:38:03.755Z,19.94
2019-06-20T22:43:09.239Z,20.09
2019-06-20T22:48:14.821Z,20.21
2019-06-20T22:53:20.302Z,20.31
2019-06-20T22:58:25.905Z,20.36
2019-06-20T23:03:31.497Z,20.35
2019-06-20T23:08:36.930Z,20.30
2019-06-20T23:13:42.473Z,20.30
2019-06-20T23:18:48.021Z,20.31
2019-06-20T23:23:53.500Z,20.29
2019-06-20T23:29:16.432Z,20.27
2019-06-20T23:34:22.189Z,20.27
2019-06-20T23:39:28.493Z,20.31
2019-06-20T23:44:34.148Z,20.37
2019-06-20T23:49:39.756Z,20.41
2019-06-20T23:54:45.512Z,20.45
2019-06-20T23:59:50.966Z,20.50
